Rechercher aéroport 
image banner adimage banner adimage banner ad
image banner ad

CL80 - Sherman Oaks Hospital

Situé à Sherman Oaks, United States

ICAO - CL80, IATA -

Données fournies par Airmate  

Information générale

Coordonnées: N34°9'36" W118°26'58"
Élévation : 697 feet MSL.
Variation magnétique : 14° East
Voir autres Aéroports à California

Données opérationnelles

Special qualification required
Heure actuelle UTC:
Heure actuelle locale:
Météo à : KVNY - Van Nuys ( 7 km )
METAR: KVNY 262251Z 16007KT 9SM CLR 26/18 A2992 RMK AO2 SLP122 T02610178
TAF: KVNY 261740Z 2618/2718 00000KT P6SM VCSH SCT040 OVC110 FM261900 14008KT P6SM OVC100 FM270300 VRB03KT P6SM BKN100
Voir NOTAMs / SUP AIP / TFR affectant cet aéroport [VIEW]
Fréquences de communication: [VIEW]

Pistes:

Coordonnées de l'aéroport

Adresse: Sherman Oaks United States

Vue satellite de CL80